createdAt,value
2018-03-26T00:00:40.115Z,25.07
2018-03-26T00:03:07.525Z,23.60
2018-03-26T00:05:34.938Z,23.80
2018-03-26T00:08:02.834Z,21.57
2018-03-26T00:10:30.302Z,21.93
2018-03-26T00:12:57.754Z,22.70
2018-03-26T00:15:25.166Z,22.27
2018-03-26T00:17:52.651Z,20.70
2018-03-26T00:20:20.210Z,22.40
2018-03-26T00:22:47.620Z,21.03
2018-03-26T00:25:15.035Z,20.87
2018-03-26T00:27:42.502Z,21.95
2018-03-26T00:30:09.921Z,20.80
2018-03-26T00:32:37.329Z,20.70
2018-03-26T00:35:04.752Z,23.87
2018-03-26T00:37:32.163Z,23.77
2018-03-26T00:39:59.581Z,24.13
2018-03-26T00:42:27.162Z,22.83
2018-03-26T00:44:54.648Z,22.97
2018-03-26T00:47:22.051Z,22.20
2018-03-26T00:49:49.491Z,22.40
2018-03-26T00:52:17.077Z,23.43
2018-03-26T00:54:44.481Z,23.27
2018-03-26T00:57:11.899Z,21.87
2018-03-26T00:59:39.314Z,22.93
2018-03-26T01:02:06.742Z,23.92
2018-03-26T01:04:34.317Z,23.80
2018-03-26T01:07:01.743Z,24.15
2018-03-26T01:09:29.877Z,25.50
2018-03-26T01:11:58.105Z,24.05
2018-03-26T01:14:25.519Z,22.27
2018-03-26T01:16:52.938Z,25.43
2018-03-26T01:19:20.341Z,22.13
2018-03-26T01:21:47.755Z,23.53
2018-03-26T01:24:15.170Z,24.10
2018-03-26T01:26:42.599Z,24.70
2018-03-26T01:29:10.130Z,20.93
2018-03-26T01:31:37.544Z,21.95
2018-03-26T01:34:04.968Z,23.57
2018-03-26T01:36:32.378Z,22.97
2018-03-26T01:38:59.795Z,22.73
2018-03-26T01:41:27.220Z,22.23
2018-03-26T01:43:54.631Z,23.37
2018-03-26T01:46:22.051Z,22.80
2018-03-26T01:48:49.461Z,24.23
2018-03-26T01:51:16.882Z,21.90
2018-03-26T01:53:44.302Z,24.60
2018-03-26T01:56:11.714Z,24.93
2018-03-26T01:58:39.190Z,22.30
2018-03-26T02:01:06.655Z,23.67
2018-03-26T02:03:34.062Z,25.33
2018-03-26T02:06:01.500Z,23.83
2018-03-26T02:08:29.171Z,23.48
2018-03-26T02:10:56.589Z,22.17
2018-03-26T02:13:23.998Z,26.02
2018-03-26T02:15:51.442Z,23.80
2018-03-26T02:18:18.895Z,24.33
2018-03-26T02:20:46.298Z,24.33
2018-03-26T02:23:13.721Z,23.27
2018-03-26T02:25:41.139Z,25.23
2018-03-26T02:28:08.554Z,22.42
2018-03-26T02:30:35.970Z,23.70
2018-03-26T02:33:03.386Z,22.93
2018-03-26T02:35:31.170Z,20.50
2018-03-26T02:37:58.668Z,24.20
2018-03-26T02:40:26.075Z,18.73
2018-03-26T02:42:53.491Z,21.20
2018-03-26T02:45:20.906Z,23.10
2018-03-26T02:47:48.335Z,22.80
2018-03-26T02:50:15.734Z,24.13
2018-03-26T02:52:43.250Z,24.20
2018-03-26T02:55:10.667Z,26.70
2018-03-26T02:57:38.075Z,25.80
2018-03-26T03:00:08.286Z,25.20
2018-03-26T03:02:35.713Z,24.45
2018-03-26T03:05:03.124Z,24.17
2018-03-26T03:07:30.529Z,23.63
2018-03-26T03:09:57.946Z,24.03
2018-03-26T03:12:25.358Z,22.63
2018-03-26T03:14:52.769Z,23.30
2018-03-26T03:17:20.184Z,21.80
2018-03-26T03:19:47.592Z,22.67
2018-03-26T03:22:14.997Z,22.80
2018-03-26T03:24:42.422Z,23.07
2018-03-26T03:27:09.826Z,22.73
2018-03-26T03:29:37.249Z,26.53
2018-03-26T03:32:04.694Z,24.43
2018-03-26T03:34:33.122Z,25.37
2018-03-26T03:37:00.537Z,24.50
2018-03-26T03:39:27.946Z,23.53
2018-03-26T03:41:55.354Z,22.10
2018-03-26T03:44:22.790Z,25.13
2018-03-26T03:46:50.208Z,23.53
2018-03-26T03:49:17.629Z,23.27
2018-03-26T03:51:45.081Z,25.07
2018-03-26T03:54:12.519Z,22.67
2018-03-26T03:56:39.927Z,23.80
2018-03-26T03:59:07.618Z,25.67
2018-03-26T04:01:35.020Z,22.83
2018-03-26T04:04:02.455Z,24.20
2018-03-26T04:06:29.849Z,23.13
2018-03-26T04:08:57.278Z,24.87
2018-03-26T04:11:24.688Z,22.33
2018-03-26T04:13:52.103Z,22.70
2018-03-26T04:16:19.569Z,23.23
2018-03-26T04:18:46.996Z,24.70
2018-03-26T04:21:14.405Z,24.67
2018-03-26T04:23:41.821Z,22.58
2018-03-26T04:26:09.367Z,23.92
2018-03-26T04:28:36.774Z,22.67
2018-03-26T04:31:04.203Z,21.75
2018-03-26T04:33:31.669Z,23.10
2018-03-26T04:35:59.096Z,22.37
2018-03-26T04:38:26.778Z,20.97
2018-03-26T04:40:54.194Z,20.77
2018-03-26T04:43:21.792Z,22.80
2018-03-26T04:45:49.214Z,19.93
2018-03-26T04:48:16.618Z,20.40
2018-03-26T04:50:44.047Z,21.77
2018-03-26T04:53:11.453Z,23.50
2018-03-26T04:55:38.890Z,22.90
2018-03-26T04:58:06.479Z,21.83
2018-03-26T05:00:33.914Z,24.37
2018-03-26T05:03:01.331Z,24.63
2018-03-26T05:05:28.766Z,20.37
2018-03-26T05:07:56.178Z,23.70
2018-03-26T05:10:23.609Z,26.50
2018-03-26T05:12:51.014Z,25.80
2018-03-26T05:15:18.432Z,25.60
2018-03-26T05:17:45.853Z,25.23
2018-03-26T05:20:13.272Z,25.30
2018-03-26T05:22:40.698Z,25.87
2018-03-26T05:25:08.138Z,24.33
2018-03-26T05:27:35.545Z,23.57
2018-03-26T05:30:02.965Z,27.33
2018-03-26T05:32:30.379Z,27.10
2018-03-26T05:34:57.838Z,28.57
2018-03-26T05:37:25.255Z,28.73
2018-03-26T05:39:52.668Z,29.03
2018-03-26T05:42:20.084Z,29.63
2018-03-26T05:44:47.541Z,23.77
2018-03-26T05:47:15.029Z,28.53
2018-03-26T05:49:43.584Z,28.83
2018-03-26T05:52:11.008Z,25.00
2018-03-26T05:54:38.914Z,27.02
2018-03-26T05:57:06.355Z,27.23
2018-03-26T05:59:33.771Z,27.37
2018-03-26T06:02:01.196Z,29.58
2018-03-26T06:04:28.610Z,30.47
2018-03-26T06:06:56.025Z,30.30
2018-03-26T06:09:23.441Z,31.48
2018-03-26T06:11:50.873Z,28.30
2018-03-26T06:14:18.415Z,30.97
2018-03-26T06:16:57.781Z,31.40
2018-03-26T06:19:25.194Z,29.13
2018-03-26T06:21:52.670Z,31.43
2018-03-26T06:24:20.042Z,30.70
2018-03-26T06:26:47.454Z,34.53
2018-03-26T06:29:14.878Z,30.02
2018-03-26T06:31:42.362Z,31.80
2018-03-26T06:34:10.741Z,30.37
2018-03-26T06:36:43.696Z,29.60
2018-03-26T06:39:15.635Z,31.70
2018-03-26T06:41:43.034Z,31.20
2018-03-26T06:44:11.260Z,31.50
2018-03-26T06:46:38.639Z,31.57
2018-03-26T06:49:06.106Z,33.93
2018-03-26T06:51:33.519Z,33.13
2018-03-26T06:54:00.930Z,30.90
2018-03-26T06:56:28.355Z,31.77
2018-03-26T06:58:55.774Z,33.50
2018-03-26T07:01:23.183Z,31.30
2018-03-26T07:03:50.606Z,31.53
2018-03-26T07:06:18.006Z,33.17
2018-03-26T07:08:45.543Z,32.80
2018-03-26T07:11:13.566Z,31.60
2018-03-26T07:13:40.990Z,37.07
2018-03-26T07:16:08.407Z,33.73
2018-03-26T07:18:35.818Z,33.90
2018-03-26T07:21:03.236Z,34.00
2018-03-26T07:23:30.735Z,31.00
2018-03-26T07:25:58.156Z,32.77
2018-03-26T07:28:25.566Z,32.63
2018-03-26T07:30:52.972Z,31.70
2018-03-26T07:33:20.488Z,33.92
2018-03-26T07:35:47.912Z,32.95
2018-03-26T07:38:15.315Z,31.87
2018-03-26T07:40:42.791Z,31.10
2018-03-26T07:43:10.214Z,32.33
2018-03-26T07:45:37.632Z,32.13
2018-03-26T07:48:05.042Z,33.47
2018-03-26T07:50:32.450Z,32.80
2018-03-26T07:52:59.860Z,35.40
2018-03-26T07:55:27.275Z,35.33
2018-03-26T07:57:54.699Z,34.60
2018-03-26T08:00:22.118Z,35.03
2018-03-26T08:02:49.536Z,33.33
2018-03-26T08:05:16.955Z,37.07
2018-03-26T08:07:45.201Z,35.55
2018-03-26T08:10:12.897Z,33.37
2018-03-26T08:12:40.364Z,34.13
2018-03-26T08:15:07.790Z,35.00
2018-03-26T08:17:35.219Z,31.80
2018-03-26T08:20:02.642Z,31.13
2018-03-26T08:22:30.106Z,36.40
2018-03-26T08:24:57.526Z,35.30
2018-03-26T08:27:24.945Z,35.80
2018-03-26T08:29:52.369Z,34.27
2018-03-26T08:32:29.052Z,35.13
2018-03-26T08:35:13.528Z,34.63
2018-03-26T08:37:43.589Z,30.50
2018-03-26T08:40:29.464Z,33.47
2018-03-26T08:42:56.886Z,33.15
2018-03-26T08:45:24.316Z,35.30
2018-03-26T08:47:51.722Z,31.90
2018-03-26T08:50:19.973Z,32.50
2018-03-26T08:52:47.378Z,28.37
2018-03-26T08:55:14.791Z,32.83
2018-03-26T08:57:42.198Z,33.97
2018-03-26T09:00:09.611Z,34.73
2018-03-26T09:02:37.095Z,33.47
2018-03-26T09:05:04.545Z,37.43
2018-03-26T09:07:31.970Z,35.20
2018-03-26T09:09:59.450Z,36.40
2018-03-26T09:12:26.870Z,37.57
2018-03-26T09:14:54.305Z,34.53
2018-03-26T09:17:21.793Z,36.23
2018-03-26T09:19:49.538Z,34.87
2018-03-26T09:22:17.785Z,32.00
2018-03-26T09:24:45.189Z,36.03
2018-03-26T09:27:12.624Z,37.30
2018-03-26T09:29:40.024Z,32.77
2018-03-26T09:32:07.456Z,34.07
2018-03-26T09:34:34.861Z,36.85
2018-03-26T09:37:02.318Z,35.33
2018-03-26T09:39:29.742Z,32.23
2018-03-26T09:41:57.259Z,34.30
2018-03-26T09:44:24.672Z,37.47
2018-03-26T09:46:52.101Z,36.50
2018-03-26T09:49:19.532Z,36.70
2018-03-26T09:51:46.943Z,34.30
2018-03-26T09:54:14.354Z,35.93
2018-03-26T09:56:41.769Z,36.00
2018-03-26T09:59:09.176Z,34.47
2018-03-26T10:01:42.145Z,35.80
2018-03-26T10:04:09.584Z,36.80
2018-03-26T10:06:37.018Z,36.20
2018-03-26T10:09:04.439Z,36.90
2018-03-26T10:11:31.866Z,34.13
2018-03-26T10:13:59.282Z,36.27
2018-03-26T10:16:26.708Z,38.30
2018-03-26T10:18:54.124Z,35.47
2018-03-26T10:21:21.531Z,36.90
2018-03-26T10:23:49.425Z,38.83
2018-03-26T10:26:16.850Z,36.47
2018-03-26T10:28:44.261Z,33.90
2018-03-26T10:31:11.707Z,37.97
2018-03-26T10:33:39.120Z,36.87
2018-03-26T10:36:06.551Z,36.80
2018-03-26T10:38:33.970Z,36.17
2018-03-26T10:41:01.395Z,36.30
2018-03-26T10:43:28.869Z,36.70
2018-03-26T10:45:56.278Z,33.43
2018-03-26T10:48:23.704Z,34.50
2018-03-26T10:50:51.110Z,38.67
2018-03-26T10:53:18.531Z,36.03
2018-03-26T10:55:45.934Z,35.20
2018-03-26T10:58:13.366Z,32.20
2018-03-26T11:00:40.789Z,36.63
2018-03-26T11:03:08.218Z,34.23
2018-03-26T11:05:35.637Z,35.40
2018-03-26T11:08:03.063Z,33.87
2018-03-26T11:10:30.482Z,34.53
2018-03-26T11:12:57.905Z,35.90
2018-03-26T11:15:25.318Z,36.20
2018-03-26T11:17:52.757Z,38.00
2018-03-26T11:20:21.093Z,38.05
2018-03-26T11:22:48.518Z,33.93
2018-03-26T11:25:15.937Z,34.17
2018-03-26T11:27:43.374Z,35.00
2018-03-26T11:30:10.808Z,35.50
2018-03-26T11:32:38.313Z,33.47
2018-03-26T11:35:05.720Z,40.00
2018-03-26T11:37:33.142Z,29.40
2018-03-26T11:40:00.558Z,36.15
2018-03-26T11:42:28.022Z,30.20
2018-03-26T11:44:55.436Z,33.13
2018-03-26T11:47:23.022Z,32.85
2018-03-26T11:49:50.435Z,34.50
2018-03-26T11:52:17.866Z,32.43
2018-03-26T11:54:45.282Z,37.20
2018-03-26T11:57:12.699Z,33.00
2018-03-26T11:59:41.064Z,32.90
2018-03-26T12:02:08.479Z,31.80
2018-03-26T12:04:35.895Z,33.90
2018-03-26T12:07:03.305Z,29.50
2018-03-26T12:09:30.737Z,34.97
2018-03-26T12:11:58.187Z,34.37
2018-03-26T12:14:25.632Z,30.83
2018-03-26T12:16:53.084Z,35.53
2018-03-26T12:19:20.500Z,32.60
2018-03-26T12:21:47.907Z,29.15
2018-03-26T12:24:27.345Z,34.53
2018-03-26T12:26:54.751Z,33.70
2018-03-26T12:29:34.984Z,33.03
2018-03-26T12:32:02.502Z,32.00
2018-03-26T12:37:23.716Z,34.00
2018-03-26T12:39:51.139Z,34.90
2018-03-26T12:42:18.563Z,34.70
2018-03-26T12:44:57.846Z,34.20
2018-03-26T12:47:25.254Z,38.03
2018-03-26T12:49:52.684Z,34.77
2018-03-26T12:52:31.815Z,32.83
2018-03-26T12:54:59.236Z,31.10
2018-03-26T12:57:38.487Z,31.27
2018-03-26T13:00:05.975Z,32.50
2018-03-26T13:02:33.332Z,34.80
2018-03-26T13:05:00.750Z,32.10
2018-03-26T13:07:28.172Z,33.17
2018-03-26T13:09:55.614Z,33.70
2018-03-26T13:12:23.053Z,33.20
2018-03-26T13:14:50.456Z,34.37
2018-03-26T13:17:17.863Z,35.90
2018-03-26T13:19:45.288Z,35.03
2018-03-26T13:22:12.747Z,35.33
2018-03-26T13:24:40.166Z,33.37
2018-03-26T13:27:07.580Z,37.30
2018-03-26T13:29:35.004Z,33.27
2018-03-26T13:32:02.422Z,33.10
2018-03-26T13:34:29.865Z,32.03
2018-03-26T13:36:57.271Z,35.80
2018-03-26T13:39:25.242Z,33.17
2018-03-26T13:41:52.664Z,30.97
2018-03-26T13:44:20.074Z,31.60
2018-03-26T13:46:47.491Z,30.67
2018-03-26T13:49:14.917Z,32.90
2018-03-26T13:51:42.322Z,32.28
2018-03-26T13:54:09.737Z,32.00
2018-03-26T13:56:37.195Z,29.47
2018-03-26T13:59:04.606Z,33.85
2018-03-26T14:01:32.039Z,33.80
2018-03-26T14:03:59.455Z,31.83
2018-03-26T14:06:26.888Z,32.90
2018-03-26T14:09:06.039Z,31.50
2018-03-26T14:11:45.419Z,31.87
2018-03-26T14:14:24.617Z,33.70
2018-03-26T14:17:03.790Z,32.43
2018-03-26T14:19:31.265Z,29.15
2018-03-26T14:21:58.675Z,31.60
2018-03-26T14:24:26.572Z,31.37
2018-03-26T14:26:53.998Z,31.90
2018-03-26T14:29:21.419Z,31.77
2018-03-26T14:31:48.841Z,30.40
2018-03-26T14:34:16.260Z,30.10
2018-03-26T14:36:43.699Z,32.27
2018-03-26T14:39:11.101Z,29.80
2018-03-26T14:41:38.536Z,30.73
2018-03-26T14:44:05.990Z,29.00
2018-03-26T14:46:33.398Z,30.47
2018-03-26T14:49:00.903Z,31.87
2018-03-26T14:51:28.326Z,29.93
2018-03-26T14:53:55.727Z,28.13
2018-03-26T14:56:23.154Z,28.20
2018-03-26T14:58:50.554Z,29.77
2018-03-26T15:01:17.967Z,29.00
2018-03-26T15:03:45.377Z,32.13
2018-03-26T15:06:12.807Z,31.03
2018-03-26T15:08:40.211Z,30.17
2018-03-26T15:11:07.630Z,29.53
2018-03-26T15:13:35.047Z,29.10
2018-03-26T15:16:02.459Z,29.17
2018-03-26T15:18:29.889Z,29.97
2018-03-26T15:20:57.303Z,30.05
2018-03-26T15:23:24.710Z,32.40
2018-03-26T15:25:52.115Z,33.00
2018-03-26T15:28:19.534Z,30.00
2018-03-26T15:30:46.958Z,34.20
2018-03-26T15:33:14.372Z,29.50
2018-03-26T15:35:41.790Z,30.20
2018-03-26T15:38:09.226Z,32.87
2018-03-26T15:40:36.625Z,31.80
2018-03-26T15:43:04.058Z,32.63
2018-03-26T15:45:31.454Z,31.60
2018-03-26T15:47:59.251Z,30.13
2018-03-26T15:50:26.665Z,30.20
2018-03-26T15:52:54.077Z,29.90
2018-03-26T15:55:21.480Z,29.35
2018-03-26T15:57:48.888Z,30.53
2018-03-26T16:00:16.377Z,27.00
2018-03-26T16:02:49.283Z,29.60
2018-03-26T16:05:16.781Z,30.83
2018-03-26T16:07:44.193Z,29.47
2018-03-26T16:10:11.711Z,29.40
2018-03-26T16:12:39.114Z,31.67
2018-03-26T16:15:06.517Z,32.63
2018-03-26T16:17:33.982Z,31.00
2018-03-26T16:20:01.369Z,31.10
2018-03-26T16:22:28.805Z,33.40
2018-03-26T16:24:56.204Z,34.20
2018-03-26T16:27:23.617Z,31.70
2018-03-26T16:29:51.026Z,34.23
2018-03-26T16:32:18.508Z,30.10
2018-03-26T16:34:45.921Z,32.90
2018-03-26T16:37:13.344Z,32.10
2018-03-26T16:39:40.757Z,27.93
2018-03-26T16:45:14.773Z,29.02
2018-03-26T16:47:42.098Z,30.88
2018-03-26T16:50:09.505Z,38.03
2018-03-26T16:52:36.935Z,80.33
2018-03-26T16:55:04.347Z,40.17
2018-03-26T16:57:31.751Z,32.03
2018-03-26T16:59:59.157Z,31.87
2018-03-26T17:02:26.593Z,32.03
2018-03-26T17:04:54.007Z,26.47
2018-03-26T17:07:21.418Z,30.00
2018-03-26T17:09:48.824Z,29.25
2018-03-26T17:12:16.231Z,29.87
2018-03-26T17:14:43.646Z,30.37
2018-03-26T17:17:11.099Z,31.25
2018-03-26T17:19:38.529Z,28.10
2018-03-26T17:22:05.994Z,28.97
2018-03-26T17:24:33.381Z,26.50
2018-03-26T17:27:00.777Z,23.33
2018-03-26T17:29:28.197Z,26.07
2018-03-26T17:31:55.622Z,28.40
2018-03-26T17:34:23.049Z,27.20
2018-03-26T17:36:50.449Z,27.40
2018-03-26T17:39:17.872Z,27.40
2018-03-26T17:41:45.325Z,29.50
2018-03-26T17:44:12.759Z,26.10
2018-03-26T17:46:40.160Z,29.00
2018-03-26T17:49:07.582Z,30.30
2018-03-26T17:51:34.992Z,42.20
2018-03-26T17:54:02.401Z,38.50
2018-03-26T17:56:29.841Z,32.43
2018-03-26T17:58:57.249Z,28.50
2018-03-26T18:01:24.669Z,30.00
2018-03-26T18:03:52.077Z,30.85
2018-03-26T18:06:19.509Z,30.17
2018-03-26T18:08:46.913Z,29.83
2018-03-26T18:11:14.333Z,30.30
2018-03-26T18:13:41.741Z,31.37
2018-03-26T18:16:09.152Z,30.73
2018-03-26T18:18:36.569Z,33.13
2018-03-26T18:21:04.844Z,31.60
2018-03-26T18:23:32.236Z,31.40
2018-03-26T18:25:59.685Z,31.00
2018-03-26T18:28:27.100Z,30.93
2018-03-26T18:30:54.509Z,32.60
2018-03-26T18:33:21.928Z,30.07
2018-03-26T18:35:49.340Z,30.10
2018-03-26T18:38:16.756Z,30.90
2018-03-26T18:40:44.217Z,30.47
2018-03-26T18:43:11.618Z,31.90
2018-03-26T18:45:39.042Z,31.80
2018-03-26T18:48:06.444Z,35.80
2018-03-26T18:50:33.877Z,34.50
2018-03-26T18:53:01.322Z,35.00
2018-03-26T18:55:28.691Z,37.57
2018-03-26T18:57:56.118Z,36.83
2018-03-26T19:00:23.525Z,37.33
2018-03-26T19:02:50.954Z,35.67
2018-03-26T19:05:18.439Z,36.67
2018-03-26T19:07:45.864Z,35.55
2018-03-26T19:10:13.286Z,37.10
2018-03-26T19:12:40.694Z,36.77
2018-03-26T19:15:08.098Z,35.83
2018-03-26T19:17:35.517Z,36.20
2018-03-26T19:20:03.538Z,38.07
2018-03-26T19:22:30.946Z,38.50
2018-03-26T19:24:58.366Z,34.70
2018-03-26T19:27:25.776Z,36.00
2018-03-26T19:29:53.292Z,36.93
2018-03-26T19:32:20.774Z,35.92
2018-03-26T19:34:48.317Z,37.30
2018-03-26T19:37:15.879Z,35.33
2018-03-26T19:39:43.474Z,31.37
2018-03-26T19:42:11.100Z,37.23
2018-03-26T19:44:38.763Z,36.57
2018-03-26T19:47:06.362Z,38.10
2018-03-26T19:49:33.900Z,40.20
2018-03-26T19:52:01.387Z,35.67
2018-03-26T19:54:28.912Z,35.43
2018-03-26T19:56:56.369Z,31.97
2018-03-26T19:59:23.821Z,31.08
2018-03-26T20:01:51.279Z,36.10
2018-03-26T20:04:18.778Z,37.30
2018-03-26T20:06:46.467Z,37.97
2018-03-26T20:09:14.008Z,35.88
2018-03-26T20:11:41.550Z,37.55
2018-03-26T20:14:09.905Z,37.72
2018-03-26T20:16:38.301Z,32.30
2018-03-26T20:19:05.832Z,40.70
2018-03-26T20:21:33.320Z,41.30
2018-03-26T20:24:00.821Z,40.83
2018-03-26T20:26:28.301Z,36.27
2018-03-26T20:28:55.733Z,40.10
2018-03-26T20:31:23.137Z,37.10
2018-03-26T20:33:50.566Z,39.60
2018-03-26T20:36:17.974Z,40.40
2018-03-26T20:38:45.400Z,38.97
2018-03-26T20:41:12.806Z,43.47
2018-03-26T20:43:41.067Z,39.55
2018-03-26T20:46:08.485Z,45.17
2018-03-26T20:48:35.900Z,42.07
2018-03-26T20:51:03.338Z,39.87
2018-03-26T20:53:30.789Z,40.43
2018-03-26T20:55:58.199Z,41.33
2018-03-26T20:58:25.684Z,42.65
2018-03-26T21:00:53.089Z,40.87
2018-03-26T21:03:20.502Z,43.50
2018-03-26T21:05:47.914Z,42.33
2018-03-26T21:08:15.327Z,47.30
2018-03-26T21:10:42.762Z,40.10
2018-03-26T21:13:10.169Z,42.27
2018-03-26T21:15:37.586Z,44.37
2018-03-26T21:18:04.997Z,45.00
2018-03-26T21:20:32.401Z,49.00
2018-03-26T21:22:59.849Z,42.62
2018-03-26T21:25:27.295Z,46.30
2018-03-26T21:27:54.702Z,43.13
2018-03-26T21:30:22.184Z,48.00
2018-03-26T21:32:49.542Z,42.80
2018-03-26T21:35:16.970Z,47.87
2018-03-26T21:37:44.382Z,48.15
2018-03-26T21:40:11.802Z,46.47
2018-03-26T21:42:39.248Z,47.67
2018-03-26T21:45:06.663Z,50.50
2018-03-26T21:47:34.111Z,47.40
2018-03-26T21:50:01.539Z,48.20
2018-03-26T21:52:28.998Z,47.87
2018-03-26T21:54:56.425Z,50.47
2018-03-26T21:57:23.836Z,44.60
2018-03-26T22:24:17.954Z,53.17
2018-03-26T22:26:46.256Z,50.25
2018-03-26T22:29:13.711Z,45.50
2018-03-26T22:31:41.141Z,48.20
2018-03-26T22:34:08.551Z,44.97
2018-03-26T22:36:35.979Z,46.37
2018-03-26T22:39:03.464Z,45.63
2018-03-26T22:41:30.897Z,42.73
2018-03-26T22:43:58.311Z,48.27
2018-03-26T22:46:25.750Z,49.47
2018-03-26T22:48:53.174Z,48.40
2018-03-26T22:51:20.591Z,48.10
2018-03-26T22:53:48.007Z,47.60
2018-03-26T22:56:15.445Z,48.57
2018-03-26T22:58:42.960Z,48.40
2018-03-26T23:01:10.384Z,50.17
2018-03-26T23:03:37.786Z,46.03
2018-03-26T23:06:05.244Z,46.17
2018-03-26T23:08:32.655Z,46.47
2018-03-26T23:11:00.191Z,48.63
2018-03-26T23:13:27.597Z,50.67
2018-03-26T23:15:55.025Z,51.95
2018-03-26T23:18:22.461Z,51.63
2018-03-26T23:20:49.894Z,52.33
2018-03-26T23:23:17.824Z,49.45
2018-03-26T23:25:45.341Z,48.20
2018-03-26T23:28:12.775Z,48.10
2018-03-26T23:30:40.181Z,48.27
2018-03-26T23:33:07.608Z,52.13
2018-03-26T23:35:35.015Z,50.50
2018-03-26T23:38:02.475Z,48.80
2018-03-26T23:40:29.886Z,48.87
2018-03-26T23:42:57.321Z,54.23
2018-03-26T23:45:24.743Z,51.27
2018-03-26T23:47:52.258Z,52.07
2018-03-26T23:50:19.666Z,53.03
2018-03-26T23:52:47.152Z,51.50
2018-03-26T23:55:14.567Z,56.85
2018-03-26T23:57:42.006Z,55.10
